Time;durP1;ratioP1;P1;durP2;ratioP2;P2;SDS_P1;SDS_P2;PMS_P1;PMS_P2;Temp;Humidity;BMP_temperature;BMP_pressure;BME280_temperature;BME280_humidity;BME280_pressure;Samples;Min_cycle;Max_cycle;Signal;HPM_P1;HPM_P2
2021/08/03 00:00:24;;;;;;;3.17;2.13;;;;;;;;;;5018619;28;20053;-54
2021/08/03 00:02:55;;;;;;;3.40;2.55;;;;;;;;;;5032287;28;20037;-55
2021/08/03 00:05:24;;;;;;;4.47;3.50;;;;;;;;;;5024300;28;20033;-55
2021/08/03 00:07:56;;;;;;;4.72;3.00;;;;;;;;;;5027459;28;20116;-55
2021/08/03 00:10:23;;;;;;;3.88;2.70;;;;;;;;;;5017123;28;20055;-56
2021/08/03 00:12:51;;;;;;;4.25;2.80;;;;;;;;;;5029717;28;20564;-56
2021/08/03 00:15:21;;;;;;;4.07;2.50;;;;;;;;;;5029068;28;20043;-53
2021/08/03 00:17:51;;;;;;;4.60;2.53;;;;;;;;;;5028939;28;20069;-55
2021/08/03 00:20:18;;;;;;;4.07;2.33;;;;;;;;;;5031875;28;20072;-54
2021/08/03 00:22:45;;;;;;;3.28;2.20;;;;;;;;;;5031864;28;20044;-55
2021/08/03 00:25:12;;;;;;;3.67;2.35;;;;;;;;;;5023815;28;20124;-54
2021/08/03 00:27:42;;;;;;;3.47;2.42;;;;;;;;;;5030096;28;20483;-55
2021/08/03 00:30:09;;;;;;;2.95;2.15;;;;;;;;;;5025400;28;20384;-55
2021/08/03 00:32:36;;;;;;;3.72;2.60;;;;;;;;;;5030708;28;20042;-52
2021/08/03 00:35:04;;;;;;;4.07;2.60;;;;;;;;;;5028367;28;20045;-52
2021/08/03 00:37:31;;;;;;;5.13;2.53;;;;;;;;;;5027210;28;20048;-54
2021/08/03 00:39:58;;;;;;;4.20;2.50;;;;;;;;;;5011826;28;20048;-54
2021/08/03 00:42:33;;;;;;;4.63;2.33;;;;;;;;;;5026132;28;20044;-52
2021/08/03 00:45:00;;;;;;;3.58;2.50;;;;;;;;;;5030389;28;20049;-53
2021/08/03 00:47:33;;;;;;;3.70;2.60;;;;;;;;;;5025287;28;20343;-56
2021/08/03 00:50:07;;;;;;;5.38;2.75;;;;;;;;;;5029827;28;20045;-53
2021/08/03 00:52:36;;;;;;;3.67;2.75;;;;;;;;;;5029260;28;20056;-54
2021/08/03 00:55:04;;;;;;;4.57;2.50;;;;;;;;;;5028066;28;20088;-56
2021/08/03 00:57:33;;;;;;;3.13;2.22;;;;;;;;;;5030340;28;20050;-55
2021/08/03 01:00:02;;;;;;;3.20;2.45;;;;;;;;;;5025274;28;20065;-53
2021/08/03 01:02:32;;;;;;;3.63;2.33;;;;;;;;;;5028350;28;20072;-53
2021/08/03 01:05:01;;;;;;;4.10;2.72;;;;;;;;;;5031470;28;20494;-54
2021/08/03 01:07:35;;;;;;;4.22;2.58;;;;;;;;;;5029657;28;20057;-54
2021/08/03 01:10:07;;;;;;;5.45;2.60;;;;;;;;;;5013911;28;20053;-55
2021/08/03 01:12:38;;;;;;;6.38;2.72;;;;;;;;;;5029420;28;20121;-54
2021/08/03 01:15:13;;;;;;;3.85;2.80;;;;;;;;;;5029345;28;20044;-53
2021/08/03 01:17:46;;;;;;;3.97;2.30;;;;;;;;;;5028039;28;20064;-55
2021/08/03 01:20:16;;;;;;;3.88;2.40;;;;;;;;;;5030636;28;20044;-56
2021/08/03 01:22:54;;;;;;;4.13;2.50;;;;;;;;;;5028606;28;20045;-54
2021/08/03 01:25:40;;;;;;;3.67;2.40;;;;;;;;;;5030649;28;20300;-51
2021/08/03 01:28:21;;;;;;;3.72;1.88;;;;;;;;;;5027339;28;20529;-56
2021/08/03 01:30:51;;;;;;;3.17;2.17;;;;;;;;;;5021877;28;20071;-53
2021/08/03 01:33:21;;;;;;;3.95;2.50;;;;;;;;;;5028411;28;20037;-56
2021/08/03 01:35:50;;;;;;;3.17;2.40;;;;;;;;;;5031760;28;20561;-57
2021/08/03 01:38:18;;;;;;;3.67;2.50;;;;;;;;;;5032971;28;20076;-53
2021/08/03 01:40:46;;;;;;;3.70;2.47;;;;;;;;;;5033611;28;20494;-54
2021/08/03 01:43:15;;;;;;;3.80;1.90;;;;;;;;;;5033171;28;20418;-56
2021/08/03 01:45:44;;;;;;;3.58;1.95;;;;;;;;;;5032498;28;20124;-55
2021/08/03 01:48:12;;;;;;;3.03;2.28;;;;;;;;;;5021108;28;20049;-54
2021/08/03 01:50:40;;;;;;;3.53;2.30;;;;;;;;;;5011329;28;20115;-53
2021/08/03 01:53:09;;;;;;;3.40;2.50;;;;;;;;;;5034059;28;20137;-54
2021/08/03 01:55:36;;;;;;;3.65;2.70;;;;;;;;;;5031676;28;20041;-54
2021/08/03 01:58:12;;;;;;;4.50;2.40;;;;;;;;;;5034432;28;20037;-56
2021/08/03 02:00:51;;;;;;;5.13;2.80;;;;;;;;;;5031215;28;20038;-57
2021/08/03 02:03:22;;;;;;;4.10;2.83;;;;;;;;;;5015098;28;20045;-55
2021/08/03 02:05:58;;;;;;;4.43;2.65;;;;;;;;;;5021469;28;20423;-55
2021/08/03 02:08:29;;;;;;;6.10;2.63;;;;;;;;;;5013210;28;20707;-56
2021/08/03 02:11:10;;;;;;;3.75;2.60;;;;;;;;;;5030174;28;20049;-54
2021/08/03 02:13:37;;;;;;;5.50;2.85;;;;;;;;;;5032559;28;20037;-57
2021/08/03 02:16:11;;;;;;;3.65;2.47;;;;;;;;;;5030987;28;20124;-54
2021/08/03 02:18:45;;;;;;;3.42;2.40;;;;;;;;;;5029427;28;20037;-56
2021/08/03 02:21:15;;;;;;;3.47;2.65;;;;;;;;;;5033018;28;20463;-55
2021/08/03 02:23:43;;;;;;;4.03;2.70;;;;;;;;;;5032535;28;20042;-55
2021/08/03 02:26:11;;;;;;;4.10;2.95;;;;;;;;;;5028756;28;20042;-56
2021/08/03 02:28:39;;;;;;;4.65;3.20;;;;;;;;;;5027911;28;20041;-55
2021/08/03 02:31:09;;;;;;;4.05;2.83;;;;;;;;;;5028220;28;20042;-54
2021/08/03 02:33:40;;;;;;;4.85;3.00;;;;;;;;;;5032331;28;20407;-53
2021/08/03 02:36:09;;;;;;;4.30;2.70;;;;;;;;;;5039203;28;20403;-56
2021/08/03 02:38:37;;;;;;;3.80;3.05;;;;;;;;;;5014395;28;20073;-55
2021/08/03 02:41:05;;;;;;;4.72;3.00;;;;;;;;;;5026800;28;20143;-56
2021/08/03 02:43:39;;;;;;;3.95;2.90;;;;;;;;;;5033986;28;20049;-57
2021/08/03 02:46:06;;;;;;;5.22;2.60;;;;;;;;;;5032163;28;20048;-56
2021/08/03 02:48:34;;;;;;;4.72;2.80;;;;;;;;;;5029857;28;20041;-54
2021/08/03 02:51:01;;;;;;;3.95;2.97;;;;;;;;;;5032539;28;20037;-56
2021/08/03 02:53:39;;;;;;;4.68;2.97;;;;;;;;;;5030722;28;20065;-55
2021/08/03 02:56:09;;;;;;;5.13;3.45;;;;;;;;;;5024468;28;20495;-55
2021/08/03 02:58:43;;;;;;;4.80;2.90;;;;;;;;;;5027135;28;20108;-55
2021/08/03 03:01:11;;;;;;;6.97;3.20;;;;;;;;;;5023267;28;20491;-55
2021/08/03 03:03:41;;;;;;;3.83;2.70;;;;;;;;;;5033551;28;20049;-51
2021/08/03 03:06:10;;;;;;;3.83;3.17;;;;;;;;;;5031446;28;20495;-55
2021/08/03 03:08:42;;;;;;;5.90;3.15;;;;;;;;;;5028530;28;20034;-54
2021/08/03 03:11:09;;;;;;;4.07;3.05;;;;;;;;;;5025495;28;20491;-55
2021/08/03 03:13:39;;;;;;;10.57;3.42;;;;;;;;;;5031360;28;20038;-54
2021/08/03 03:16:07;;;;;;;6.75;3.42;;;;;;;;;;5031003;28;20092;-54
2021/08/03 03:18:34;;;;;;;6.50;3.50;;;;;;;;;;5017822;28;20141;-55
2021/08/03 03:21:02;;;;;;;5.95;3.70;;;;;;;;;;5029013;28;20527;-54
2021/08/03 03:23:33;;;;;;;4.00;3.20;;;;;;;;;;5033461;28;20045;-52
2021/08/03 03:26:01;;;;;;;6.55;3.90;;;;;;;;;;5028546;28;20045;-54
2021/08/03 03:28:30;;;;;;;5.53;3.40;;;;;;;;;;5030415;28;20037;-55
2021/08/03 03:30:59;;;;;;;5.75;4.00;;;;;;;;;;5022871;28;20029;-55
2021/08/03 03:33:26;;;;;;;6.35;4.10;;;;;;;;;;5012919;28;20510;-54
2021/08/03 03:35:58;;;;;;;8.35;3.63;;;;;;;;;;5028822;28;20037;-55
2021/08/03 03:38:27;;;;;;;6.17;4.10;;;;;;;;;;5027242;28;20437;-55
2021/08/03 03:40:55;;;;;;;6.10;4.03;;;;;;;;;;5027101;28;20752;-55
2021/08/03 03:43:23;;;;;;;5.32;3.85;;;;;;;;;;5031327;28;20072;-56
2021/08/03 03:46:10;;;;;;;5.25;3.72;;;;;;;;;;5031619;28;20392;-54
2021/08/03 03:48:41;;;;;;;5.88;4.07;;;;;;;;;;5011955;28;20037;-55
2021/08/03 03:51:08;;;;;;;5.90;3.28;;;;;;;;;;5031621;28;20041;-54
2021/08/03 03:53:40;;;;;;;5.30;3.22;;;;;;;;;;5030698;28;20521;-53
2021/08/03 03:56:08;;;;;;;5.40;4.15;;;;;;;;;;5030758;28;20061;-56
2021/08/03 03:58:40;;;;;;;5.25;4.00;;;;;;;;;;5029204;28;20064;-57
2021/08/03 04:01:10;;;;;;;8.25;4.63;;;;;;;;;;5022124;28;20045;-57
2021/08/03 04:03:37;;;;;;;5.38;4.30;;;;;;;;;;5028854;28;20063;-55
2021/08/03 04:06:07;;;;;;;4.97;4.20;;;;;;;;;;5044572;28;20049;-48
2021/08/03 04:08:38;;;;;;;7.18;4.60;;;;;;;;;;5010894;28;20077;-52
2021/08/03 04:11:08;;;;;;;7.55;4.05;;;;;;;;;;5036268;28;20041;-50
2021/08/03 04:13:36;;;;;;;6.90;3.88;;;;;;;;;;5030304;28;20034;-48
2021/08/03 04:16:03;;;;;;;10.85;4.38;;;;;;;;;;5029470;28;20038;-50
2021/08/03 04:18:31;;;;;;;5.38;4.47;;;;;;;;;;5029328;28;20107;-49
2021/08/03 04:20:57;;;;;;;6.82;4.53;;;;;;;;;;5032231;28;20136;-49
2021/08/03 04:23:24;;;;;;;5.57;4.32;;;;;;;;;;5013270;28;20051;-50
2021/08/03 04:25:51;;;;;;;5.28;3.55;;;;;;;;;;5023352;28;20073;-51
2021/08/03 04:28:18;;;;;;;7.45;4.20;;;;;;;;;;5024169;28;20045;-55
2021/08/03 04:30:45;;;;;;;6.57;4.05;;;;;;;;;;5027840;28;20049;-53
2021/08/03 04:33:16;;;;;;;7.00;4.90;;;;;;;;;;5032150;28;20409;-52
2021/08/03 04:35:42;;;;;;;6.32;3.92;;;;;;;;;;5031008;28;20034;-48
2021/08/03 04:38:09;;;;;;;5.00;3.85;;;;;;;;;;5022288;28;20120;-50
2021/08/03 04:40:36;;;;;;;4.80;3.78;;;;;;;;;;5019160;28;20478;-54
2021/08/03 04:43:03;;;;;;;4.78;4.00;;;;;;;;;;5029676;28;20049;-49
2021/08/03 04:45:30;;;;;;;7.65;3.53;;;;;;;;;;5029798;28;20585;-51
2021/08/03 04:47:56;;;;;;;6.95;3.60;;;;;;;;;;5023529;28;20450;-55
2021/08/03 04:50:25;;;;;;;5.32;3.58;;;;;;;;;;5029127;28;20128;-52
2021/08/03 04:52:53;;;;;;;6.00;3.10;;;;;;;;;;5028570;28;20041;-52
2021/08/03 04:55:20;;;;;;;6.95;3.97;;;;;;;;;;5030911;28;20140;-49
2021/08/03 04:57:47;;;;;;;5.00;3.92;;;;;;;;;;5015506;28;20034;-50
2021/08/03 05:00:15;;;;;;;8.70;4.38;;;;;;;;;;5022141;28;20129;-51
2021/08/03 05:02:42;;;;;;;5.55;3.70;;;;;;;;;;5028114;28;20046;-52
2021/08/03 05:05:10;;;;;;;5.53;3.67;;;;;;;;;;5029798;28;20119;-48
2021/08/03 05:07:37;;;;;;;4.65;3.58;;;;;;;;;;5024378;28;20038;-55
2021/08/03 05:10:05;;;;;;;4.32;3.47;;;;;;;;;;5030241;28;20557;-52
2021/08/03 05:12:32;;;;;;;5.85;4.13;;;;;;;;;;5029469;28;20116;-50
2021/08/03 05:15:02;;;;;;;5.00;3.75;;;;;;;;;;5028044;28;20176;-51
2021/08/03 05:17:29;;;;;;;4.47;3.65;;;;;;;;;;5030665;28;20128;-51
2021/08/03 05:19:56;;;;;;;6.32;3.75;;;;;;;;;;5029246;28;20056;-49
2021/08/03 05:22:24;;;;;;;4.60;3.85;;;;;;;;;;5029329;28;20391;-52
2021/08/03 05:24:51;;;;;;;4.90;3.78;;;;;;;;;;5027558;28;20037;-49
2021/08/03 05:27:18;;;;;;;6.70;3.95;;;;;;;;;;5021710;28;20096;-48
2021/08/03 05:29:45;;;;;;;4.85;3.60;;;;;;;;;;5025678;28;20092;-49
2021/08/03 05:32:11;;;;;;;6.28;3.97;;;;;;;;;;5029722;28;20509;-48
2021/08/03 05:34:38;;;;;;;5.82;3.60;;;;;;;;;;5029717;28;20196;-49
2021/08/03 05:37:06;;;;;;;4.70;3.53;;;;;;;;;;5030047;28;20434;-52
2021/08/03 05:39:32;;;;;;;4.40;3.45;;;;;;;;;;5022482;28;20045;-48
2021/08/03 05:42:00;;;;;;;4.60;3.45;;;;;;;;;;5019829;28;20076;-49
2021/08/03 05:44:27;;;;;;;4.25;3.08;;;;;;;;;;5029629;28;20045;-49
2021/08/03 05:46:54;;;;;;;5.88;3.75;;;;;;;;;;5030201;28;20053;-50
2021/08/03 05:49:21;;;;;;;6.18;3.75;;;;;;;;;;5027235;28;20051;-49
2021/08/03 05:51:48;;;;;;;6.13;3.50;;;;;;;;;;5028706;28;20132;-54
2021/08/03 05:54:14;;;;;;;5.38;3.70;;;;;;;;;;5029654;28;20042;-51
2021/08/03 05:56:41;;;;;;;4.75;3.47;;;;;;;;;;5030641;28;20065;-49
2021/08/03 05:59:08;;;;;;;5.80;3.47;;;;;;;;;;5027348;28;20128;-51
2021/08/03 06:01:35;;;;;;;6.80;3.60;;;;;;;;;;5021190;28;20127;-47
2021/08/03 06:04:02;;;;;;;5.18;3.13;;;;;;;;;;5029156;28;20057;-50
2021/08/03 06:06:32;;;;;;;6.03;3.22;;;;;;;;;;5028896;28;20120;-48
2021/08/03 06:08:59;;;;;;;4.70;3.13;;;;;;;;;;5023012;28;20044;-48
2021/08/03 06:11:26;;;;;;;6.28;3.45;;;;;;;;;;5030740;28;20041;-49
2021/08/03 06:13:57;;;;;;;5.07;3.50;;;;;;;;;;5029320;28;20049;-49
2021/08/03 06:16:25;;;;;;;7.22;3.63;;;;;;;;;;5026597;28;20044;-49
2021/08/03 06:18:53;;;;;;;6.38;3.42;;;;;;;;;;5014093;28;20075;-48
2021/08/03 06:21:20;;;;;;;6.45;3.40;;;;;;;;;;5027939;28;20092;-50
2021/08/03 06:23:48;;;;;;;7.20;3.38;;;;;;;;;;5034223;28;20041;-53
2021/08/03 06:26:17;;;;;;;7.88;3.20;;;;;;;;;;5032926;28;20096;-50
2021/08/03 06:28:47;;;;;;;5.97;3.10;;;;;;;;;;5027314;28;20084;-48
2021/08/03 06:31:13;;;;;;;6.40;3.33;;;;;;;;;;5031050;28;20495;-52
2021/08/03 06:33:40;;;;;;;4.57;3.22;;;;;;;;;;5031911;28;20432;-49
2021/08/03 06:36:07;;;;;;;4.72;3.13;;;;;;;;;;5032505;28;20321;-47
2021/08/03 06:38:34;;;;;;;5.28;3.38;;;;;;;;;;5027896;28;20053;-52
2021/08/03 06:41:01;;;;;;;5.35;3.45;;;;;;;;;;5025126;28;20557;-51
2021/08/03 06:43:28;;;;;;;5.43;3.50;;;;;;;;;;5031813;28;20625;-49
2021/08/03 06:46:21;;;;;;;5.55;3.17;;;;;;;;;;5031963;28;20033;-50
2021/08/03 06:49:08;;;;;;;7.38;3.65;;;;;;;;;;5028094;28;20072;-48
2021/08/03 06:51:36;;;;;;;6.63;3.60;;;;;;;;;;5030825;28;20041;-53
2021/08/03 06:54:05;;;;;;;7.18;3.85;;;;;;;;;;5033372;28;20125;-50
2021/08/03 06:56:34;;;;;;;8.25;3.80;;;;;;;;;;5018816;28;20042;-48
2021/08/03 06:59:05;;;;;;;8.40;3.45;;;;;;;;;;5022610;28;20080;-48
2021/08/03 07:01:44;;;;;;;5.25;3.67;;;;;;;;;;5026859;28;20045;-51
2021/08/03 07:04:12;;;;;;;5.05;3.35;;;;;;;;;;5016394;28;20541;-50
2021/08/03 07:06:43;;;;;;;5.43;3.15;;;;;;;;;;5031361;28;20091;-51
2021/08/03 07:09:10;;;;;;;5.45;3.17;;;;;;;;;;5029732;28;20047;-47
2021/08/03 07:11:37;;;;;;;6.63;3.15;;;;;;;;;;5032284;28;20471;-48
2021/08/03 07:14:05;;;;;;;6.78;3.42;;;;;;;;;;5033498;28;20100;-49
2021/08/03 07:16:32;;;;;;;4.78;3.05;;;;;;;;;;5029709;28;20049;-53
2021/08/03 07:19:00;;;;;;;5.55;2.95;;;;;;;;;;5031869;28;20128;-56
2021/08/03 07:21:27;;;;;;;3.85;2.90;;;;;;;;;;5026226;28;20041;-50
2021/08/03 07:23:55;;;;;;;4.68;2.97;;;;;;;;;;5031412;28;20065;-55
2021/08/03 07:26:26;;;;;;;5.88;2.90;;;;;;;;;;5021850;28;20057;-51
2021/08/03 07:28:53;;;;;;;6.18;2.72;;;;;;;;;;5031732;28;20513;-48
2021/08/03 07:31:19;;;;;;;6.57;3.65;;;;;;;;;;5025599;28;20037;-50
2021/08/03 07:33:46;;;;;;;7.10;2.83;;;;;;;;;;5031417;28;20483;-51
2021/08/03 07:36:14;;;;;;;5.43;3.05;;;;;;;;;;5032554;28;20099;-48
2021/08/03 07:38:43;;;;;;;4.90;2.72;;;;;;;;;;5024348;28;20037;-49
2021/08/03 07:41:11;;;;;;;4.10;2.35;;;;;;;;;;5027792;28;20115;-47
2021/08/03 07:43:40;;;;;;;3.58;2.10;;;;;;;;;;5030022;28;20649;-47
2021/08/03 07:46:09;;;;;;;4.10;2.40;;;;;;;;;;5032109;28;20037;-48
2021/08/03 07:48:36;;;;;;;3.53;2.10;;;;;;;;;;5023051;28;20137;-48
2021/08/03 07:51:02;;;;;;;3.45;2.03;;;;;;;;;;5012659;28;20124;-53
2021/08/03 07:53:48;;;;;;;3.47;2.03;;;;;;;;;;5025814;28;20513;-49
2021/08/03 07:56:15;;;;;;;7.75;2.40;;;;;;;;;;5032335;28;20050;-48
2021/08/03 07:58:42;;;;;;;4.13;2.45;;;;;;;;;;5026173;28;20087;-50
2021/08/03 08:01:08;;;;;;;6.55;2.38;;;;;;;;;;5015913;28;20050;-53
2021/08/03 08:03:36;;;;;;;3.50;2.20;;;;;;;;;;5023407;28;20103;-47
2021/08/03 08:06:04;;;;;;;6.90;2.50;;;;;;;;;;5031342;28;20049;-51
2021/08/03 08:08:31;;;;;;;7.10;2.47;;;;;;;;;;5029698;28;20049;-46
2021/08/03 08:10:58;;;;;;;4.57;2.13;;;;;;;;;;5012372;28;20050;-50
2021/08/03 08:13:24;;;;;;;4.55;2.30;;;;;;;;;;5021821;28;20123;-51
2021/08/03 08:15:51;;;;;;;4.45;2.30;;;;;;;;;;5020313;28;20080;-53
2021/08/03 08:18:18;;;;;;;4.88;2.10;;;;;;;;;;5033407;28;20124;-51
2021/08/03 08:20:45;;;;;;;8.75;2.65;;;;;;;;;;5031849;28;20088;-49
2021/08/03 08:23:13;;;;;;;4.70;2.40;;;;;;;;;;5032144;28;20513;-54
2021/08/03 08:25:41;;;;;;;3.40;2.28;;;;;;;;;;5026500;28;20103;-50
2021/08/03 08:28:08;;;;;;;5.85;2.15;;;;;;;;;;5030681;28;20453;-47
2021/08/03 08:30:35;;;;;;;3.67;2.28;;;;;;;;;;5025959;28;20046;-50
2021/08/03 08:33:02;;;;;;;5.10;2.58;;;;;;;;;;5024829;28;20137;-52
2021/08/03 08:35:36;;;;;;;3.45;2.08;;;;;;;;;;5030700;28;20041;-53
2021/08/03 08:38:03;;;;;;;3.30;2.05;;;;;;;;;;5026313;28;20049;-51
2021/08/03 08:40:31;;;;;;;4.40;1.90;;;;;;;;;;5005752;28;20128;-52
2021/08/03 08:42:58;;;;;;;5.88;2.35;;;;;;;;;;5026158;28;20056;-52
2021/08/03 08:45:25;;;;;;;4.63;2.47;;;;;;;;;;5025428;28;20116;-52
2021/08/03 08:47:52;;;;;;;5.72;2.70;;;;;;;;;;5023680;28;20052;-51
2021/08/03 08:50:21;;;;;;;4.35;2.00;;;;;;;;;;5019134;28;20111;-54
2021/08/03 08:52:50;;;;;;;5.22;1.90;;;;;;;;;;5028114;28;20046;-54
2021/08/03 08:55:17;;;;;;;3.28;1.90;;;;;;;;;;5019882;28;20438;-50
2021/08/03 08:57:47;;;;;;;2.85;1.70;;;;;;;;;;5025974;28;20545;-52
2021/08/03 09:00:14;;;;;;;4.35;1.90;;;;;;;;;;5021428;28;20443;-53
2021/08/03 09:02:49;;;;;;;2.80;1.83;;;;;;;;;;5026478;28;20041;-50
2021/08/03 09:05:24;;;;;;;5.88;2.10;;;;;;;;;;5031461;28;20037;-50
2021/08/03 09:07:52;;;;;;;2.65;1.95;;;;;;;;;;5031734;28;20041;-55
2021/08/03 09:10:46;;;;;;;3.35;1.70;;;;;;;;;;5015436;28;20049;-50
2021/08/03 09:13:17;;;;;;;4.25;2.10;;;;;;;;;;5029793;28;20447;-53
2021/08/03 09:15:45;;;;;;;5.03;2.20;;;;;;;;;;5029454;28;20037;-51
2021/08/03 09:18:12;;;;;;;3.42;2.20;;;;;;;;;;5020221;28;20553;-52
2021/08/03 09:20:40;;;;;;;6.75;2.58;;;;;;;;;;5030391;28;20069;-54
2021/08/03 09:23:07;;;;;;;4.10;1.75;;;;;;;;;;5031080;28;20049;-53
2021/08/03 09:25:33;;;;;;;4.72;1.88;;;;;;;;;;5001688;28;20596;-50
2021/08/03 09:28:09;;;;;;;3.65;2.35;;;;;;;;;;5030491;28;20045;-54
2021/08/03 09:30:37;;;;;;;3.28;2.03;;;;;;;;;;5021185;28;20041;-56
2021/08/03 09:33:05;;;;;;;2.97;2.25;;;;;;;;;;5030596;28;20067;-54
2021/08/03 09:35:32;;;;;;;3.58;2.22;;;;;;;;;;5028294;28;20049;-54
2021/08/03 09:38:00;;;;;;;4.40;2.13;;;;;;;;;;5030511;28;20037;-54
2021/08/03 09:40:31;;;;;;;5.82;2.30;;;;;;;;;;5024646;28;20054;-54
2021/08/03 09:43:01;;;;;;;6.75;2.22;;;;;;;;;;5030781;28;20037;-54
2021/08/03 09:45:29;;;;;;;3.33;2.10;;;;;;;;;;5031096;28;20521;-54
2021/08/03 09:48:07;;;;;;;3.67;1.92;;;;;;;;;;5030582;28;20034;-54
2021/08/03 09:50:52;;;;;;;7.40;1.88;;;;;;;;;;5015308;28;20088;-55
2021/08/03 09:53:37;;;;;;;4.18;2.30;;;;;;;;;;5019057;28;20045;-54
2021/08/03 09:56:04;;;;;;;4.03;2.10;;;;;;;;;;5031265;28;20115;-54
2021/08/03 09:58:31;;;;;;;4.15;2.00;;;;;;;;;;5029178;28;20068;-54
2021/08/03 10:01:17;;;;;;;3.35;2.30;;;;;;;;;;5024316;28;20061;-55
2021/08/03 10:03:44;;;;;;;3.15;1.80;;;;;;;;;;5031542;28;20056;-57
2021/08/03 10:06:11;;;;;;;4.00;2.42;;;;;;;;;;5031649;28;20095;-58
2021/08/03 10:08:38;;;;;;;2.35;1.70;;;;;;;;;;5033337;28;20073;-57
2021/08/03 10:11:05;;;;;;;3.78;1.98;;;;;;;;;;5027605;28;20067;-57
2021/08/03 10:13:31;;;;;;;4.15;1.80;;;;;;;;;;5024553;28;20060;-56
2021/08/03 10:15:58;;;;;;;3.75;1.90;;;;;;;;;;5034622;28;20056;-57
2021/08/03 10:18:25;;;;;;;4.50;2.10;;;;;;;;;;5032486;28;20064;-57
2021/08/03 10:20:52;;;;;;;3.17;1.90;;;;;;;;;;5032080;28;20045;-56
2021/08/03 10:23:19;;;;;;;3.83;2.20;;;;;;;;;;5024920;28;20132;-54
2021/08/03 10:25:46;;;;;;;4.80;1.80;;;;;;;;;;5032207;28;20539;-56
2021/08/03 10:28:18;;;;;;;3.70;1.80;;;;;;;;;;5027019;28;20072;-57
2021/08/03 10:30:45;;;;;;;4.13;1.90;;;;;;;;;;5028018;28;20037;-50
2021/08/03 10:33:31;;;;;;;3.80;2.08;;;;;;;;;;5030345;28;20385;-56
2021/08/03 10:35:59;;;;;;;3.08;2.13;;;;;;;;;;5033841;28;20038;-54
2021/08/03 10:38:28;;;;;;;5.93;2.33;;;;;;;;;;5033659;28;20065;-57
2021/08/03 10:40:57;;;;;;;5.60;2.22;;;;;;;;;;5021756;28;20044;-47
2021/08/03 10:43:25;;;;;;;6.28;2.47;;;;;;;;;;5030336;28;20406;-52
2021/08/03 10:46:15;;;;;;;3.83;2.55;;;;;;;;;;5031153;28;20053;-51
2021/08/03 10:48:43;;;;;;;6.13;2.50;;;;;;;;;;5025806;28;20072;-54
2021/08/03 10:51:13;;;;;;;3.03;2.08;;;;;;;;;;5029724;28;20081;-51
2021/08/03 10:53:59;;;;;;;5.25;2.33;;;;;;;;;;5032901;28;20065;-52
2021/08/03 10:56:27;;;;;;;6.10;2.30;;;;;;;;;;5030280;28;20045;-53
2021/08/03 10:59:13;;;;;;;3.80;2.25;;;;;;;;;;5030733;28;20037;-52
2021/08/03 11:01:43;;;;;;;3.38;2.38;;;;;;;;;;5030867;28;20144;-53
2021/08/03 11:04:31;;;;;;;7.13;2.50;;;;;;;;;;5032177;28;20510;-51
2021/08/03 11:07:17;;;;;;;2.83;1.92;;;;;;;;;;5025022;28;20172;-48
2021/08/03 11:09:44;;;;;;;3.13;2.15;;;;;;;;;;5020010;28;20128;-52
2021/08/03 11:12:29;;;;;;;3.08;1.90;;;;;;;;;;5033222;28;20045;-47
2021/08/03 11:14:56;;;;;;;2.90;2.00;;;;;;;;;;5032920;28;20046;-47
2021/08/03 11:17:46;;;;;;;3.83;1.90;;;;;;;;;;5019679;28;20073;-51
2021/08/03 11:20:33;;;;;;;6.95;2.20;;;;;;;;;;5018840;28;20060;-51
2021/08/03 11:23:04;;;;;;;4.28;2.03;;;;;;;;;;5030200;28;20462;-48
2021/08/03 11:25:32;;;;;;;4.38;2.42;;;;;;;;;;5018076;28;20046;-54
2021/08/03 11:28:15;;;;;;;4.90;2.25;;;;;;;;;;5030440;28;20124;-49
2021/08/03 11:30:43;;;;;;;3.92;2.15;;;;;;;;;;5019787;28;20046;-51
2021/08/03 11:33:11;;;;;;;4.82;2.00;;;;;;;;;;5016429;28;20041;-49
2021/08/03 11:35:37;;;;;;;3.25;2.08;;;;;;;;;;5030828;28;20040;-52
2021/08/03 11:38:05;;;;;;;2.75;2.03;;;;;;;;;;5027319;28;20068;-57
2021/08/03 11:40:43;;;;;;;3.30;2.10;;;;;;;;;;5031103;28;20084;-57
2021/08/03 11:43:10;;;;;;;6.85;2.42;;;;;;;;;;5031898;28;20452;-52
2021/08/03 11:45:40;;;;;;;6.43;2.10;;;;;;;;;;5030045;28;20128;-50
2021/08/03 11:48:17;;;;;;;3.45;2.33;;;;;;;;;;5021142;28;20046;-48
2021/08/03 11:50:44;;;;;;;3.13;1.90;;;;;;;;;;5019722;28;20525;-48
2021/08/03 11:53:15;;;;;;;2.75;2.00;;;;;;;;;;5030409;28;20046;-49
2021/08/03 11:55:43;;;;;;;4.65;1.98;;;;;;;;;;5029303;28;20133;-50
2021/08/03 11:58:10;;;;;;;4.28;2.30;;;;;;;;;;5030171;28;20037;-52
2021/08/03 12:00:38;;;;;;;2.88;1.83;;;;;;;;;;5028723;28;20055;-48
2021/08/03 12:03:05;;;;;;;5.10;2.65;;;;;;;;;;5036853;28;20041;-51
2021/08/03 12:05:33;;;;;;;4.88;2.00;;;;;;;;;;5030698;28;20042;-48
2021/08/03 12:07:59;;;;;;;5.15;2.05;;;;;;;;;;5031716;28;20142;-52
2021/08/03 12:10:28;;;;;;;3.53;2.20;;;;;;;;;;5020769;28;20540;-52
2021/08/03 12:12:55;;;;;;;5.20;2.20;;;;;;;;;;5028981;28;20041;-53
2021/08/03 12:15:22;;;;;;;3.47;2.20;;;;;;;;;;5029858;28;20073;-51
2021/08/03 12:17:59;;;;;;;3.42;2.00;;;;;;;;;;5014258;28;20050;-50
2021/08/03 12:20:26;;;;;;;4.85;2.50;;;;;;;;;;5029621;28;20049;-51
2021/08/03 12:22:54;;;;;;;3.78;1.75;;;;;;;;;;5031302;28;20140;-54
2021/08/03 12:25:21;;;;;;;5.00;2.60;;;;;;;;;;5017501;28;20077;-52
2021/08/03 12:27:48;;;;;;;3.70;1.90;;;;;;;;;;5026119;28;20045;-51
2021/08/03 12:30:35;;;;;;;2.53;1.70;;;;;;;;;;5021630;28;20088;-51
2021/08/03 12:33:02;;;;;;;2.83;1.90;;;;;;;;;;5010912;28;20096;-51
2021/08/03 12:35:29;;;;;;;2.90;2.00;;;;;;;;;;5020815;28;20128;-51
2021/08/03 12:38:11;;;;;;;3.55;1.80;;;;;;;;;;5030688;28;20041;-52
2021/08/03 12:40:38;;;;;;;3.80;1.80;;;;;;;;;;5021285;28;20077;-51
2021/08/03 12:43:05;;;;;;;4.82;2.10;;;;;;;;;;5030996;28;20410;-49
2021/08/03 12:45:32;;;;;;;4.15;1.95;;;;;;;;;;5029330;28;20079;-55
2021/08/03 12:48:01;;;;;;;3.80;2.38;;;;;;;;;;5028813;28;20045;-47
2021/08/03 12:50:29;;;;;;;4.72;2.20;;;;;;;;;;5030598;28;20100;-53
2021/08/03 12:52:59;;;;;;;2.33;1.63;;;;;;;;;;5031050;28;20065;-48
2021/08/03 12:55:29;;;;;;;2.75;1.70;;;;;;;;;;5031168;28;20076;-51
2021/08/03 12:57:57;;;;;;;4.05;2.47;;;;;;;;;;5012969;28;20421;-49
2021/08/03 13:00:43;;;;;;;3.10;1.77;;;;;;;;;;5011837;28;20117;-51
2021/08/03 13:03:11;;;;;;;2.53;1.55;;;;;;;;;;5012078;28;20456;-49
2021/08/03 13:05:39;;;;;;;3.33;1.70;;;;;;;;;;5027712;28;20053;-48
2021/08/03 13:08:06;;;;;;;2.83;1.83;;;;;;;;;;5019676;28;20481;-51
2021/08/03 13:10:35;;;;;;;3.65;1.52;;;;;;;;;;5026984;28;20124;-49
2021/08/03 13:13:03;;;;;;;3.80;1.70;;;;;;;;;;5030782;28;20487;-50
2021/08/03 13:15:29;;;;;;;2.88;1.60;;;;;;;;;;5030927;28;20037;-49
2021/08/03 13:17:56;;;;;;;3.03;1.58;;;;;;;;;;5026977;28;20069;-57
2021/08/03 13:20:23;;;;;;;2.13;1.63;;;;;;;;;;5028224;28;20038;-56
2021/08/03 13:22:50;;;;;;;3.13;1.60;;;;;;;;;;5028629;28;20117;-48
2021/08/03 13:25:17;;;;;;;3.20;1.60;;;;;;;;;;5027834;28;20426;-50
2021/08/03 13:27:43;;;;;;;2.03;1.40;;;;;;;;;;5029752;28;20497;-54
2021/08/03 13:30:10;;;;;;;2.42;1.40;;;;;;;;;;5025478;28;20113;-51
2021/08/03 13:32:37;;;;;;;3.85;1.63;;;;;;;;;;5014606;28;20208;-53
2021/08/03 13:35:05;;;;;;;2.45;1.52;;;;;;;;;;5032460;28;20049;-52
2021/08/03 13:37:32;;;;;;;2.95;1.52;;;;;;;;;;5035176;28;20100;-49
2021/08/03 13:39:59;;;;;;;3.83;1.60;;;;;;;;;;5025210;28;20066;-54
2021/08/03 13:42:26;;;;;;;4.45;1.63;;;;;;;;;;5015423;28;20058;-54
2021/08/03 13:44:53;;;;;;;4.18;1.60;;;;;;;;;;5030440;28;20077;-50
2021/08/03 13:47:20;;;;;;;2.83;2.08;;;;;;;;;;5034855;28;20051;-52
2021/08/03 13:49:50;;;;;;;3.65;2.00;;;;;;;;;;5026227;28;20049;-51
2021/08/03 13:52:19;;;;;;;3.08;1.90;;;;;;;;;;5015272;28;20056;-51
2021/08/03 13:54:46;;;;;;;3.13;1.83;;;;;;;;;;5028574;28;20045;-53
2021/08/03 13:57:13;;;;;;;3.13;1.70;;;;;;;;;;5034049;28;20617;-50
2021/08/03 13:59:40;;;;;;;2.83;1.80;;;;;;;;;;5022505;28;20065;-54
2021/08/03 14:02:07;;;;;;;2.25;1.45;;;;;;;;;;5014937;28;20132;-54
2021/08/03 14:04:36;;;;;;;2.40;1.50;;;;;;;;;;5026808;28;20045;-51
2021/08/03 14:07:03;;;;;;;3.78;1.92;;;;;;;;;;5033141;28;20068;-53
2021/08/03 14:09:30;;;;;;;2.10;1.40;;;;;;;;;;5028481;28;20057;-53
2021/08/03 14:11:57;;;;;;;6.05;2.22;;;;;;;;;;5034044;28;20478;-54
2021/08/03 14:14:24;;;;;;;2.90;1.40;;;;;;;;;;5034360;28;20073;-54
2021/08/03 14:16:52;;;;;;;3.50;1.85;;;;;;;;;;5031245;28;20790;-54
2021/08/03 14:19:20;;;;;;;3.08;2.00;;;;;;;;;;5014287;28;20072;-53
2021/08/03 14:21:49;;;;;;;2.95;2.15;;;;;;;;;;5029784;28;20076;-49
2021/08/03 14:24:17;;;;;;;2.53;1.55;;;;;;;;;;5034013;28;20079;-51
2021/08/03 14:26:44;;;;;;;3.15;1.60;;;;;;;;;;5024525;28;20054;-55
2021/08/03 14:29:11;;;;;;;2.72;1.67;;;;;;;;;;5014085;28;20081;-54
2021/08/03 14:31:39;;;;;;;3.88;1.65;;;;;;;;;;5028967;28;20037;-50
2021/08/03 14:34:06;;;;;;;4.45;2.25;;;;;;;;;;5034253;28;20046;-51
2021/08/03 14:36:33;;;;;;;2.53;1.73;;;;;;;;;;5033769;28;20125;-51
2021/08/03 14:39:01;;;;;;;4.30;1.88;;;;;;;;;;5015404;28;20101;-54
2021/08/03 14:41:28;;;;;;;3.08;2.17;;;;;;;;;;5026871;28;20155;-51
2021/08/03 14:43:55;;;;;;;4.05;2.35;;;;;;;;;;5033884;28;20073;-52
2021/08/03 14:46:22;;;;;;;6.40;2.97;;;;;;;;;;5025270;28;20137;-52
2021/08/03 14:48:52;;;;;;;2.85;1.48;;;;;;;;;;5013705;28;20046;-51
2021/08/03 14:51:19;;;;;;;3.25;2.00;;;;;;;;;;5012872;28;20138;-54
2021/08/03 14:53:46;;;;;;;3.22;1.92;;;;;;;;;;5014387;28;20045;-51
2021/08/03 14:56:13;;;;;;;3.80;2.08;;;;;;;;;;5013789;28;20104;-53